LIRF/FCO METAR and TAF weather

Enter ICAO airport designator
Station Type Date Time Source
LIRF METAR 2019/04/23 03:50 UTC NOAA

LIRF 230350Z 13017KT 6000 TSRA SCT025 SCT030CB 15/12 Q1002 NOSIG


Station Type Date Time Source
LIRF Decoded METAR 2019/04/23 03:50 UTC NOAA

Roma Fiumicino, Italy (LIRF) 41-48N 012-14E 3M
Apr 22, 2019 - 11:50 PM EDT / 2019.04.23 0350 UTC
Wind: from the SE (130 degrees) at 20 MPH (17 KT):0
Visibility: 3 mile(s):0
Sky conditions: partly cloudy
Weather: rain with thunder; Cumulonimbus clouds observed
Temperature: 59 F (15 C)
Dew Point: 53 F (12 C)
Relative Humidity: 82%
Pressure (altimeter): 29.59 in. Hg (1002 hPa)
ob: LIRF 230350Z 13017KT 6000 TSRA SCT025 SCT030CB 15/12 Q1002 NOSIG
cycle: 4

Station Type Date Time Source
LIRF TAF 2019/04/23 03:57 UTC NOAA

TAF
AMD TAF
AMD LIRF 230353Z 2303/2406 14012KT 9999 SCT030
TEMPO 2303/2305 4000 TSRA
TEMPO 2305/2314 4000 SHRA
BECMG 2308/2310 20016G26KT
BECMG 2318/2320 14010KT

Example: see airport list